Time;durP1;ratioP1;P1;durP2;ratioP2;P2;SDS_P1;SDS_P2;PMS_P1;PMS_P2;Temp;Humidity;BMP_temperature;BMP_pressure;BME280_temperature;BME280_humidity;BME280_pressure;Samples;Min_cycle;Max_cycle;Signal;HPM_P1;HPM_P2
2023/09/23 00:00:36;;;;;;;1.63;1.23;;;11.10;99.90;;;;;;5030704;28;20457;-72
2023/09/23 00:03:03;;;;;;;2.80;1.10;;;11.10;99.90;;;;;;5031178;28;20461;-72
2023/09/23 00:05:33;;;;;;;3.37;1.33;;;11.10;99.90;;;;;;5031340;28;20457;-72
2023/09/23 00:08:00;;;;;;;1.40;1.30;;;11.10;99.90;;;;;;5030980;28;20904;-72
2023/09/23 00:10:27;;;;;;;2.53;1.10;;;11.10;99.90;;;;;;5031316;28;20457;-72
2023/09/23 00:12:55;;;;;;;1.10;1.00;;;11.10;99.90;;;;;;5030198;28;20845;-72
2023/09/23 00:15:23;;;;;;;2.50;1.23;;;11.10;99.90;;;;;;5030652;28;20464;-72
2023/09/23 00:17:53;;;;;;;2.40;1.30;;;11.10;99.90;;;;;;5030410;28;20476;-72
2023/09/23 00:20:21;;;;;;;1.40;1.30;;;11.20;99.90;;;;;;5024463;28;20518;-72
2023/09/23 00:22:54;;;;;;;1.30;1.20;;;11.20;99.90;;;;;;5029623;28;20563;-71
2023/09/23 00:25:23;;;;;;;1.20;1.10;;;11.20;99.90;;;;;;5035499;28;21035;-72
2023/09/23 00:27:50;;;;;;;2.17;1.33;;;11.10;99.90;;;;;;5039993;28;20512;-72
2023/09/23 00:30:17;;;;;;;5.83;1.30;;;11.10;99.90;;;;;;5032975;28;20483;-72
2023/09/23 00:32:45;;;;;;;1.70;1.47;;;11.10;99.90;;;;;;5033503;28;20485;-72
2023/09/23 00:35:12;;;;;;;1.70;1.40;;;11.00;99.90;;;;;;5043835;28;20452;-72
2023/09/23 00:37:40;;;;;;;1.40;1.20;;;11.00;99.90;;;;;;5046812;28;20453;-72
2023/09/23 00:40:13;;;;;;;7.17;2.63;;;10.90;99.90;;;;;;5024033;28;20460;-72
2023/09/23 00:42:39;;;;;;;1.30;1.20;;;10.90;99.90;;;;;;5033102;28;20568;-72
2023/09/23 00:45:14;;;;;;;3.20;1.30;;;10.90;99.90;;;;;;5040664;28;20448;-72
2023/09/23 00:47:42;;;;;;;1.93;1.27;;;10.90;99.90;;;;;;5042110;28;20513;-72
2023/09/23 00:50:19;;;;;;;1.40;1.30;;;10.90;99.90;;;;;;5041560;28;21019;-73
2023/09/23 00:52:49;;;;;;;1.33;1.23;;;10.80;99.90;;;;;;5035310;28;20469;-72
2023/09/23 00:55:17;;;;;;;1.30;1.20;;;10.90;99.90;;;;;;5016239;28;20450;-72
2023/09/23 00:57:46;;;;;;;1.97;1.30;;;10.80;99.90;;;;;;5040641;28;20982;-72
2023/09/23 01:00:13;;;;;;;1.43;1.20;;;10.80;99.90;;;;;;5045619;28;20491;-72
2023/09/23 01:02:40;;;;;;;1.53;1.20;;;10.80;99.90;;;;;;5030065;28;20473;-72
2023/09/23 01:05:07;;;;;;;6.83;1.30;;;10.80;99.90;;;;;;5035944;28;20483;-72
2023/09/23 01:07:35;;;;;;;1.23;1.13;;;10.80;99.90;;;;;;5038421;28;20484;-72
2023/09/23 01:10:03;;;;;;;3.23;1.40;;;10.80;99.90;;;;;;5032516;28;20825;-72
2023/09/23 01:12:30;;;;;;;1.77;1.47;;;10.90;99.90;;;;;;5048219;28;20490;-72
2023/09/23 01:15:04;;;;;;;2.13;1.20;;;10.90;99.90;;;;;;5033287;28;20453;-72
2023/09/23 01:17:31;;;;;;;3.30;1.40;;;11.00;99.90;;;;;;5031582;28;20457;-72
2023/09/23 01:19:57;;;;;;;2.53;1.60;;;11.00;99.90;;;;;;5041556;28;20536;-72
2023/09/23 01:22:25;;;;;;;1.30;1.00;;;11.10;99.90;;;;;;5040472;28;20470;-72
2023/09/23 01:24:52;;;;;;;4.33;1.13;;;11.10;99.90;;;;;;5038933;28;20461;-72
2023/09/23 01:27:19;;;;;;;1.67;1.30;;;11.10;99.90;;;;;;5034642;28;20901;-72
2023/09/23 01:29:52;;;;;;;1.70;1.33;;;11.10;99.90;;;;;;5033801;28;20507;-72
2023/09/23 01:32:30;;;;;;;2.20;1.40;;;11.10;99.90;;;;;;5039666;28;20511;-72
2023/09/23 01:34:57;;;;;;;2.47;1.33;;;11.20;99.90;;;;;;5037531;28;20465;-72
2023/09/23 01:37:25;;;;;;;1.40;1.30;;;11.30;99.90;;;;;;5040294;28;20459;-72
2023/09/23 01:39:52;;;;;;;1.30;1.20;;;11.30;99.90;;;;;;5037101;28;20457;-72
2023/09/23 01:42:19;;;;;;;1.20;1.07;;;11.20;99.90;;;;;;5039578;28;20480;-72
2023/09/23 01:44:46;;;;;;;1.30;1.20;;;11.20;99.90;;;;;;5045548;28;20950;-72
2023/09/23 01:47:12;;;;;;;1.60;1.50;;;11.20;99.90;;;;;;5039699;28;20492;-72
2023/09/23 01:49:39;;;;;;;1.90;1.80;;;11.10;99.90;;;;;;5034244;28;20512;-71
2023/09/23 01:52:06;;;;;;;1.53;1.30;;;11.10;99.90;;;;;;5038312;28;20527;-71
2023/09/23 01:54:34;;;;;;;8.30;1.63;;;11.10;99.90;;;;;;5042750;28;20464;-72
2023/09/23 01:57:01;;;;;;;1.43;1.30;;;11.10;99.90;;;;;;5046337;28;21010;-71
2023/09/23 01:59:28;;;;;;;1.40;1.30;;;11.10;99.90;;;;;;5037372;28;20461;-72
2023/09/23 02:01:55;;;;;;;1.43;1.30;;;11.10;99.90;;;;;;5034864;28;20477;-72
2023/09/23 02:04:21;;;;;;;1.30;1.20;;;11.10;99.90;;;;;;5042309;28;20482;-72
2023/09/23 02:06:48;;;;;;;1.63;1.30;;;11.10;99.90;;;;;;5044018;28;20488;-72
2023/09/23 02:09:15;;;;;;;1.23;1.13;;;11.10;99.90;;;;;;5046040;28;20865;-72
2023/09/23 02:11:43;;;;;;;1.33;1.17;;;11.10;99.90;;;;;;5036609;28;20488;-71
2023/09/23 02:14:10;;;;;;;2.33;1.10;;;11.10;99.90;;;;;;5040059;28;20498;-72
2023/09/23 02:16:36;;;;;;;1.30;1.20;;;11.10;99.90;;;;;;5037757;28;20480;-72
2023/09/23 02:19:03;;;;;;;1.30;1.20;;;11.10;99.90;;;;;;5046056;28;20457;-72
2023/09/23 02:21:30;;;;;;;1.40;1.30;;;11.10;99.90;;;;;;5040130;28;20452;-72
2023/09/23 02:23:57;;;;;;;1.50;1.40;;;11.20;99.90;;;;;;5035407;28;20514;-71
2023/09/23 02:26:23;;;;;;;2.20;1.30;;;11.10;99.90;;;;;;5040005;28;20448;-72
2023/09/23 02:28:51;;;;;;;1.47;1.37;;;11.20;99.90;;;;;;5042478;28;20469;-73
2023/09/23 02:31:19;;;;;;;4.00;1.37;;;11.20;99.90;;;;;;5043403;28;20483;-72
2023/09/23 02:33:46;;;;;;;1.50;1.40;;;11.20;99.90;;;;;;5039511;28;21174;-72
2023/09/23 02:36:14;;;;;;;3.17;1.53;;;11.20;99.90;;;;;;5038203;28;20471;-72
2023/09/23 02:38:42;;;;;;;1.80;1.40;;;11.20;99.90;;;;;;5035855;28;20473;-72
2023/09/23 02:41:08;;;;;;;1.60;1.50;;;11.20;99.90;;;;;;5040011;28;20450;-72
2023/09/23 02:43:35;;;;;;;1.67;1.57;;;11.20;99.90;;;;;;5046601;28;21098;-72
2023/09/23 02:46:03;;;;;;;1.50;1.40;;;11.10;99.90;;;;;;5034999;28;20457;-72
2023/09/23 02:48:30;;;;;;;1.50;1.40;;;11.10;99.90;;;;;;5038587;28;20484;-72
2023/09/23 02:50:58;;;;;;;1.30;1.20;;;11.10;99.90;;;;;;5041734;28;20461;-72
2023/09/23 02:53:25;;;;;;;1.80;1.20;;;11.10;99.90;;;;;;5048578;28;20481;-72
2023/09/23 02:56:00;;;;;;;2.10;1.40;;;11.10;99.90;;;;;;5041166;28;20463;-73
2023/09/23 02:58:27;;;;;;;2.33;1.37;;;11.10;99.90;;;;;;5030740;28;20455;-72
2023/09/23 03:00:57;;;;;;;3.30;1.40;;;11.00;99.90;;;;;;5037232;28;20460;-71
2023/09/23 03:03:27;;;;;;;1.70;1.60;;;11.00;99.90;;;;;;5044788;28;20515;-72
2023/09/23 03:05:55;;;;;;;1.70;1.60;;;11.00;99.90;;;;;;5039372;28;20547;-72
2023/09/23 03:08:23;;;;;;;2.37;1.70;;;11.00;99.90;;;;;;5039672;28;20501;-71
2023/09/23 03:10:51;;;;;;;3.30;1.80;;;11.00;99.90;;;;;;5036520;28;20541;-72
2023/09/23 03:13:18;;;;;;;1.53;1.43;;;10.90;99.90;;;;;;5039437;28;20468;-71
2023/09/23 03:15:50;;;;;;;2.07;1.47;;;11.00;99.90;;;;;;5033667;28;20537;-72
2023/09/23 03:18:27;;;;;;;2.17;1.50;;;11.00;99.90;;;;;;5044886;28;20450;-72
2023/09/23 03:20:55;;;;;;;2.23;1.77;;;11.00;99.90;;;;;;5034910;28;20467;-71
2023/09/23 03:23:23;;;;;;;1.70;1.60;;;11.00;99.90;;;;;;5040214;28;20468;-72
2023/09/23 03:25:51;;;;;;;1.80;1.70;;;11.00;99.90;;;;;;5042811;28;20962;-72
2023/09/23 03:28:18;;;;;;;2.90;1.70;;;11.00;99.90;;;;;;5037827;28;20485;-71
2023/09/23 03:30:47;;;;;;;2.90;1.97;;;11.00;99.90;;;;;;5032056;28;20523;-72
2023/09/23 03:33:14;;;;;;;1.70;1.60;;;11.00;99.90;;;;;;5037748;28;20477;-72
2023/09/23 03:35:41;;;;;;;4.13;1.67;;;10.90;99.90;;;;;;5036534;28;20457;-72
2023/09/23 03:38:10;;;;;;;1.40;1.30;;;10.90;99.90;;;;;;5045164;28;20453;-72
2023/09/23 03:40:38;;;;;;;2.80;1.77;;;10.90;99.90;;;;;;5041736;28;20484;-72
2023/09/23 03:43:05;;;;;;;2.43;1.63;;;10.90;99.90;;;;;;5034903;28;20509;-72
2023/09/23 03:45:34;;;;;;;3.07;1.70;;;10.90;99.90;;;;;;5036308;28;20511;-72
2023/09/23 03:48:02;;;;;;;3.80;1.80;;;10.80;99.90;;;;;;5042283;28;20600;-72
2023/09/23 03:50:30;;;;;;;7.97;2.17;;;10.70;99.90;;;;;;5047318;28;20958;-74
2023/09/23 03:52:58;;;;;;;2.07;1.97;;;10.70;99.90;;;;;;5039154;28;20564;-72
2023/09/23 03:55:26;;;;;;;2.23;1.80;;;10.70;99.90;;;;;;5036414;28;20459;-72
2023/09/23 03:57:54;;;;;;;2.60;1.60;;;10.60;99.90;;;;;;5035732;28;20449;-71
2023/09/23 04:00:21;;;;;;;3.63;1.63;;;10.60;99.90;;;;;;5041198;28;20919;-71
2023/09/23 04:02:48;;;;;;;2.30;1.60;;;10.60;99.90;;;;;;5032619;28;20564;-71
2023/09/23 04:05:15;;;;;;;4.27;1.70;;;10.60;99.90;;;;;;5038914;28;20458;-71
2023/09/23 04:07:42;;;;;;;3.63;1.80;;;10.50;99.90;;;;;;5035932;28;20520;-73
2023/09/23 04:10:09;;;;;;;1.50;1.40;;;10.50;99.90;;;;;;5040807;28;20462;-72
2023/09/23 04:12:38;;;;;;;2.17;1.67;;;10.40;99.90;;;;;;5045435;28;20566;-72
2023/09/23 04:15:07;;;;;;;3.33;1.97;;;10.40;99.90;;;;;;5043020;28;20453;-72
2023/09/23 04:17:34;;;;;;;8.33;2.07;;;10.40;99.90;;;;;;5032234;28;20462;-72
2023/09/23 04:20:09;;;;;;;2.10;1.90;;;10.40;99.90;;;;;;5037647;28;20449;-72
2023/09/23 04:22:37;;;;;;;2.47;1.57;;;10.30;99.90;;;;;;5043794;28;20494;-72
2023/09/23 04:25:05;;;;;;;1.70;1.43;;;10.30;99.90;;;;;;5043427;28;21010;-72
2023/09/23 04:27:32;;;;;;;2.03;1.80;;;10.20;99.90;;;;;;5036742;28;20481;-72
2023/09/23 04:30:01;;;;;;;4.90;2.10;;;10.20;99.90;;;;;;5035167;28;20461;-72
2023/09/23 04:32:28;;;;;;;5.63;2.97;;;10.20;99.90;;;;;;5035230;28;20563;-72
2023/09/23 04:34:55;;;;;;;6.43;2.10;;;10.10;99.90;;;;;;5042586;28;20460;-72
2023/09/23 04:37:23;;;;;;;4.33;2.53;;;10.10;99.90;;;;;;5039204;28;20453;-72
2023/09/23 04:39:50;;;;;;;4.43;2.20;;;10.00;99.90;;;;;;5034326;28;20461;-72
2023/09/23 04:42:17;;;;;;;3.30;3.00;;;10.00;99.90;;;;;;5037106;28;20477;-73
2023/09/23 04:44:44;;;;;;;4.93;2.13;;;9.90;99.90;;;;;;5039926;28;20514;-72
2023/09/23 04:47:12;;;;;;;6.60;2.20;;;9.80;99.90;;;;;;5031677;28;20538;-72
2023/09/23 04:49:40;;;;;;;2.20;2.00;;;9.70;99.90;;;;;;5039809;28;20476;-72
2023/09/23 04:52:07;;;;;;;3.40;1.93;;;9.60;99.90;;;;;;5031267;28;20493;-72
2023/09/23 04:54:33;;;;;;;3.20;1.93;;;9.60;99.90;;;;;;5039315;28;20547;-72
2023/09/23 04:57:02;;;;;;;3.67;1.90;;;9.60;99.90;;;;;;5038222;28;20480;-72
2023/09/23 04:59:32;;;;;;;5.43;1.90;;;9.50;99.90;;;;;;5032414;28;20452;-72
2023/09/23 05:02:00;;;;;;;4.53;2.00;;;9.50;99.90;;;;;;5030300;28;20564;-72
2023/09/23 05:04:28;;;;;;;3.30;2.37;;;9.40;99.90;;;;;;5032443;28;20977;-72
2023/09/23 05:06:56;;;;;;;4.10;2.10;;;9.40;99.90;;;;;;5038146;28;20613;-72
2023/09/23 05:09:23;;;;;;;3.33;2.53;;;9.30;99.90;;;;;;5039379;28;20457;-72
2023/09/23 05:11:51;;;;;;;5.27;2.80;;;9.20;99.90;;;;;;5040391;28;20488;-72
2023/09/23 05:14:18;;;;;;;3.90;2.37;;;9.20;99.90;;;;;;5038558;28;20506;-72
2023/09/23 05:16:45;;;;;;;4.37;2.93;;;9.20;99.90;;;;;;5038643;28;20467;-72
2023/09/23 05:19:12;;;;;;;3.10;2.90;;;9.20;99.90;;;;;;5046701;28;20453;-71
2023/09/23 05:21:40;;;;;;;4.70;2.70;;;9.20;99.90;;;;;;5050459;28;20563;-72
2023/09/23 05:24:09;;;;;;;3.30;3.00;;;9.30;99.90;;;;;;5045570;28;20939;-73
2023/09/23 05:26:36;;;;;;;3.30;3.00;;;9.30;99.90;;;;;;5036624;28;20461;-73
2023/09/23 05:29:03;;;;;;;5.10;2.90;;;9.40;99.90;;;;;;5042839;28;20492;-72
2023/09/23 05:31:30;;;;;;;7.63;2.53;;;9.40;99.90;;;;;;5034894;28;20531;-72
2023/09/23 05:33:56;;;;;;;3.20;2.60;;;9.50;99.90;;;;;;5048636;28;21055;-72
2023/09/23 05:36:23;;;;;;;4.60;2.70;;;9.60;99.90;;;;;;5043377;28;20456;-71
2023/09/23 05:38:51;;;;;;;2.60;2.20;;;9.60;99.90;;;;;;5041335;28;20445;-71
2023/09/23 05:41:23;;;;;;;2.60;2.40;;;9.70;99.90;;;;;;5044722;28;20544;-71
2023/09/23 05:43:51;;;;;;;4.80;2.60;;;9.80;99.90;;;;;;5040448;28;20455;-71
2023/09/23 05:46:18;;;;;;;4.90;2.20;;;9.90;99.90;;;;;;5041395;28;20467;-71
2023/09/23 05:48:48;;;;;;;2.67;2.27;;;9.90;99.90;;;;;;5039419;28;20488;-72
2023/09/23 05:51:15;;;;;;;2.40;2.20;;;10.00;99.90;;;;;;5043934;28;20454;-71
2023/09/23 05:53:42;;;;;;;3.67;2.33;;;10.10;99.90;;;;;;5047979;28;20456;-71
2023/09/23 05:56:10;;;;;;;4.40;2.43;;;10.20;99.90;;;;;;5046186;28;20456;-72
2023/09/23 05:58:37;;;;;;;7.60;2.30;;;10.40;99.90;;;;;;5039834;28;20449;-72
2023/09/23 06:01:04;;;;;;;4.17;1.90;;;10.60;99.90;;;;;;5037790;28;20461;-71
2023/09/23 06:03:30;;;;;;;5.00;2.17;;;10.90;99.90;;;;;;5047122;28;20551;-71
2023/09/23 06:05:57;;;;;;;4.13;2.40;;;11.00;99.90;;;;;;5042074;28;20464;-71
2023/09/23 06:08:24;;;;;;;3.40;2.17;;;11.20;99.90;;;;;;5045904;28;21008;-71
2023/09/23 06:10:52;;;;;;;3.10;2.03;;;11.40;99.90;;;;;;5037074;28;20452;-71
2023/09/23 06:13:20;;;;;;;6.90;2.20;;;11.60;99.90;;;;;;5040517;28;20484;-71
2023/09/23 06:15:46;;;;;;;6.07;2.50;;;11.90;99.90;;;;;;5041826;28;20498;-72
2023/09/23 06:18:13;;;;;;;4.07;2.53;;;12.00;99.90;;;;;;5043604;28;20453;-71
2023/09/23 06:20:40;;;;;;;4.30;2.13;;;12.20;99.90;;;;;;5036648;28;21008;-72
2023/09/23 06:23:07;;;;;;;3.57;1.87;;;12.40;99.90;;;;;;5034372;28;20472;-71
2023/09/23 06:25:33;;;;;;;5.63;1.93;;;12.70;99.90;;;;;;5034184;28;20440;-71
2023/09/23 06:28:00;;;;;;;4.57;1.90;;;13.10;99.90;;;;;;5037153;28;20492;-70
2023/09/23 06:30:28;;;;;;;8.90;2.00;;;13.50;99.90;;;;;;5037927;28;20849;-72
2023/09/23 06:32:54;;;;;;;3.87;1.63;;;13.90;99.90;;;;;;5030771;28;20977;-71
2023/09/23 06:35:21;;;;;;;3.40;1.80;;;14.40;99.90;;;;;;5030312;28;20448;-72
2023/09/23 06:37:48;;;;;;;3.67;1.90;;;15.00;99.90;;;;;;5040278;28;20457;-72
2023/09/23 06:40:14;;;;;;;2.73;1.80;;;15.50;99.90;;;;;;5039114;28;20432;-72
2023/09/23 06:42:41;;;;;;;5.33;1.77;;;15.90;99.90;;;;;;5040256;28;20477;-72
2023/09/23 06:45:09;;;;;;;4.00;1.73;;;16.20;99.90;;;;;;5034661;28;20484;-72
2023/09/23 06:47:37;;;;;;;5.80;2.20;;;16.60;99.90;;;;;;5037755;28;20431;-71
2023/09/23 06:50:05;;;;;;;4.60;2.10;;;16.80;99.90;;;;;;5040011;28;21031;-71
2023/09/23 06:52:32;;;;;;;1.73;1.63;;;17.00;99.90;;;;;;5042999;28;20559;-71
2023/09/23 06:54:59;;;;;;;2.37;1.47;;;17.60;99.90;;;;;;5037050;28;20436;-71
2023/09/23 06:57:25;;;;;;;5.60;2.10;;;18.00;99.90;;;;;;5038658;28;21150;-72
2023/09/23 06:59:52;;;;;;;3.30;1.40;;;18.10;99.90;;;;;;5038809;28;20431;-72
2023/09/23 07:02:19;;;;;;;1.70;1.57;;;17.70;99.90;;;;;;5037426;28;20305;-72
2023/09/23 07:04:48;;;;;;;4.50;2.00;;;17.70;99.90;;;;;;5035847;28;20530;-71
2023/09/23 07:07:15;;;;;;;3.83;1.77;;;18.20;99.90;;;;;;5030981;28;20997;-72
2023/09/23 07:09:41;;;;;;;3.97;2.03;;;18.60;99.90;;;;;;5028107;28;20898;-71
2023/09/23 07:12:12;;;;;;;4.33;1.87;;;18.50;99.90;;;;;;5031990;28;20473;-71
2023/09/23 07:14:39;;;;;;;3.47;1.93;;;18.60;99.90;;;;;;5035453;28;20461;-71
2023/09/23 07:17:06;;;;;;;1.60;1.50;;;18.70;99.90;;;;;;5033151;28;20489;-72
2023/09/23 07:19:32;;;;;;;3.00;1.57;;;18.70;99.90;;;;;;5032045;28;20481;-72
2023/09/23 07:22:00;;;;;;;2.80;1.50;;;18.40;99.90;;;;;;5037603;28;20446;-71
2023/09/23 07:24:27;;;;;;;3.30;1.60;;;18.00;99.90;;;;;;5031053;28;20490;-71
2023/09/23 07:26:54;;;;;;;4.90;1.60;;;17.80;99.90;;;;;;5027299;28;20439;-71
2023/09/23 07:29:21;;;;;;;4.77;1.80;;;18.00;99.90;;;;;;5027665;28;20489;-71
2023/09/23 07:31:48;;;;;;;4.00;1.50;;;18.00;99.90;;;;;;5025997;28;20543;-71
2023/09/23 07:34:14;;;;;;;11.03;1.53;;;18.10;99.90;;;;;;5026708;28;20432;-71
2023/09/23 07:36:42;;;;;;;1.50;1.40;;;18.00;99.90;;;;;;5032180;28;20435;-70
2023/09/23 07:39:11;;;;;;;2.77;1.70;;;17.90;99.90;;;;;;5036512;28;20481;-70
2023/09/23 07:41:37;;;;;;;2.97;1.63;;;17.70;99.90;;;;;;5033490;28;20559;-70
2023/09/23 07:44:04;;;;;;;1.90;1.60;;;17.60;99.90;;;;;;5034191;28;20517;-71
2023/09/23 07:46:32;;;;;;;3.87;1.93;;;17.70;99.90;;;;;;5037285;28;20858;-70
2023/09/23 07:48:58;;;;;;;1.40;1.30;;;17.70;99.90;;;;;;5039449;28;20495;-71
2023/09/23 07:51:25;;;;;;;8.37;2.03;;;17.60;99.90;;;;;;5037966;28;20504;-71
2023/09/23 07:53:52;;;;;;;1.90;1.70;;;17.60;99.90;;;;;;5034190;28;20939;-72
2023/09/23 07:56:20;;;;;;;5.43;1.77;;;18.10;99.90;;;;;;5038007;28;20876;-72
2023/09/23 07:58:47;;;;;;;6.10;1.80;;;18.10;99.90;;;;;;5040563;28;20452;-72
2023/09/23 08:01:13;;;;;;;2.43;1.53;;;18.20;99.90;;;;;;5036927;28;20450;-72
2023/09/23 08:03:40;;;;;;;3.00;1.60;;;18.40;99.90;;;;;;5031396;28;20467;-71
2023/09/23 08:06:06;;;;;;;3.53;1.50;;;18.10;99.90;;;;;;5030526;28;20906;-72
2023/09/23 08:08:33;;;;;;;2.53;1.30;;;17.60;99.90;;;;;;5040269;28;20459;-72
2023/09/23 08:11:00;;;;;;;3.83;1.50;;;17.00;99.90;;;;;;5037171;28;20489;-71
2023/09/23 08:13:28;;;;;;;9.93;1.90;;;16.90;99.90;;;;;;5037580;28;20912;-71
2023/09/23 08:15:58;;;;;;;1.97;1.57;;;17.00;99.90;;;;;;5028780;28;20459;-70
2023/09/23 08:18:25;;;;;;;5.93;1.80;;;16.80;99.90;;;;;;5033625;28;20880;-71
2023/09/23 08:20:56;;;;;;;5.90;1.90;;;16.60;99.90;;;;;;5036444;28;20438;-72
2023/09/23 08:23:23;;;;;;;3.90;1.87;;;16.60;99.90;;;;;;5034038;28;20670;-72
2023/09/23 08:25:49;;;;;;;4.07;1.93;;;16.90;99.90;;;;;;5031567;28;20526;-72
2023/09/23 08:28:16;;;;;;;2.90;1.70;;;17.20;99.90;;;;;;5031491;28;20432;-72
2023/09/23 08:30:45;;;;;;;2.40;1.43;;;17.20;99.90;;;;;;5035519;28;20880;-72
2023/09/23 08:33:12;;;;;;;4.23;1.90;;;17.30;99.90;;;;;;5036657;28;20502;-72
2023/09/23 08:35:41;;;;;;;5.53;1.87;;;17.40;99.90;;;;;;5038514;28;21146;-73
2023/09/23 08:38:08;;;;;;;2.80;1.40;;;17.40;99.90;;;;;;5031177;28;20455;-72
2023/09/23 08:40:36;;;;;;;4.10;1.50;;;17.40;99.90;;;;;;5032952;28;20494;-72
2023/09/23 08:43:05;;;;;;;2.20;1.60;;;17.60;99.90;;;;;;5030655;28;20611;-72
2023/09/23 08:45:33;;;;;;;5.70;1.43;;;17.50;99.90;;;;;;5037024;28;20428;-72
2023/09/23 08:48:02;;;;;;;3.13;1.40;;;17.50;99.90;;;;;;5033950;28;20511;-72
2023/09/23 08:50:30;;;;;;;2.60;1.57;;;17.90;99.90;;;;;;5032143;28;20546;-72
2023/09/23 08:52:59;;;;;;;5.70;2.10;;;18.40;99.90;;;;;;5033735;28;20512;-73
2023/09/23 08:55:28;;;;;;;2.90;1.83;;;18.70;99.90;;;;;;5033667;28;20457;-74
2023/09/23 08:57:55;;;;;;;6.70;2.20;;;18.60;99.90;;;;;;5037277;28;20431;-72
2023/09/23 09:00:21;;;;;;;4.13;1.80;;;18.70;99.90;;;;;;5029882;28;20450;-71
2023/09/23 09:02:48;;;;;;;2.20;1.53;;;19.00;99.90;;;;;;5034139;28;20518;-72
2023/09/23 09:05:16;;;;;;;4.77;1.77;;;19.40;99.90;;;;;;5032839;28;20889;-71
2023/09/23 09:07:42;;;;;;;3.93;1.37;;;19.80;99.90;;;;;;5034613;28;20427;-72
2023/09/23 09:10:10;;;;;;;3.30;1.80;;;19.70;99.90;;;;;;5031161;28;20551;-72
2023/09/23 09:12:36;;;;;;;2.23;1.40;;;19.60;99.90;;;;;;5040093;28;20497;-72
2023/09/23 09:15:03;;;;;;;4.50;1.63;;;19.20;99.90;;;;;;5032104;28;20532;-72
2023/09/23 09:17:32;;;;;;;2.70;1.40;;;19.10;99.90;;;;;;5034259;28;20826;-72
2023/09/23 09:20:01;;;;;;;3.30;1.50;;;18.80;99.90;;;;;;5033760;28;20449;-72
2023/09/23 09:22:30;;;;;;;3.20;1.50;;;18.30;99.90;;;;;;5032217;28;20447;-73
2023/09/23 09:24:57;;;;;;;5.10;1.73;;;18.20;99.90;;;;;;5030778;28;20464;-72
2023/09/23 09:27:23;;;;;;;3.63;1.93;;;18.10;99.90;;;;;;5028620;28;21237;-71
2023/09/23 09:29:50;;;;;;;3.63;1.40;;;18.00;99.90;;;;;;5030824;28;20489;-71
2023/09/23 09:32:22;;;;;;;3.00;1.77;;;18.40;99.90;;;;;;5027426;28;20530;-71
2023/09/23 09:34:49;;;;;;;6.40;1.60;;;18.40;99.90;;;;;;5029934;28;20518;-72
2023/09/23 09:37:18;;;;;;;4.40;1.70;;;18.90;99.90;;;;;;5025679;28;20873;-71
2023/09/23 09:39:51;;;;;;;2.63;1.40;;;19.40;99.90;;;;;;5030511;28;20448;-72
2023/09/23 09:42:28;;;;;;;3.70;1.83;;;19.30;99.90;;;;;;5025164;28;20547;-73
2023/09/23 09:44:56;;;;;;;1.53;1.37;;;19.40;99.90;;;;;;5034303;28;20535;-72
2023/09/23 09:47:23;;;;;;;4.17;1.57;;;19.40;99.90;;;;;;5032481;28;20461;-73
2023/09/23 09:49:52;;;;;;;4.60;1.83;;;19.20;99.90;;;;;;5029966;28;21021;-73
2023/09/23 09:52:21;;;;;;;4.53;1.53;;;19.00;99.90;;;;;;5032080;28;20559;-73
2023/09/23 09:54:52;;;;;;;4.10;1.63;;;18.70;99.90;;;;;;5036691;28;20506;-74
2023/09/23 09:57:19;;;;;;;4.70;1.47;;;18.30;99.90;;;;;;5034616;28;20943;-73
2023/09/23 09:59:46;;;;;;;2.03;1.60;;;18.10;99.90;;;;;;5038675;28;20448;-73
2023/09/23 10:02:14;;;;;;;4.20;1.67;;;17.80;99.90;;;;;;5031951;28;20467;-72
2023/09/23 10:04:46;;;;;;;3.33;1.40;;;17.60;99.90;;;;;;5044360;28;20461;-70
2023/09/23 10:07:13;;;;;;;1.90;1.67;;;17.70;99.90;;;;;;5033433;28;20457;-71
2023/09/23 10:09:53;;;;;;;2.87;1.63;;;18.20;99.90;;;;;;5039269;28;20552;-73
2023/09/23 10:12:25;;;;;;;10.27;1.60;;;18.70;99.90;;;;;;5031240;28;21024;-74
2023/09/23 10:14:55;;;;;;;1.90;1.40;;;18.90;99.90;;;;;;5032508;28;20461;-71
2023/09/23 10:17:30;;;;;;;4.10;1.50;;;18.80;99.90;;;;;;5039804;28;20544;-72
2023/09/23 10:19:57;;;;;;;2.90;1.77;;;18.90;99.90;;;;;;5037167;28;20957;-74
2023/09/23 10:22:24;;;;;;;4.13;1.53;;;19.00;99.90;;;;;;5036671;28;20552;-73
2023/09/23 10:25:04;;;;;;;2.80;1.60;;;19.30;99.90;;;;;;5035477;28;20535;-71
2023/09/23 10:27:31;;;;;;;4.20;1.60;;;19.80;99.90;;;;;;5035204;28;20461;-72
2023/09/23 10:29:58;;;;;;;3.67;1.40;;;20.00;99.90;;;;;;5036696;28;20864;-72
2023/09/23 10:32:25;;;;;;;31.97;15.27;;;20.30;99.90;;;;;;5034509;28;20519;-74
2023/09/23 10:34:55;;;;;;;6.30;1.80;;;20.40;99.90;;;;;;5039765;28;20506;-77
2023/09/23 10:37:26;;;;;;;5.93;1.80;;;19.90;99.90;;;;;;5036601;28;20873;-72
2023/09/23 10:39:52;;;;;;;3.87;1.70;;;19.30;99.90;;;;;;5034219;28;20479;-73
2023/09/23 10:42:20;;;;;;;3.83;1.60;;;18.60;99.90;;;;;;5031624;28;20486;-71
2023/09/23 10:44:47;;;;;;;2.63;1.70;;;18.60;99.90;;;;;;5037988;28;20458;-72
2023/09/23 10:47:14;;;;;;;1.80;1.40;;;18.80;99.90;;;;;;5035380;28;20544;-74
2023/09/23 10:49:41;;;;;;;4.07;1.50;;;19.00;99.90;;;;;;5034921;28;20487;-72
2023/09/23 10:52:09;;;;;;;3.87;1.70;;;19.00;99.90;;;;;;5034101;28;20454;-73
2023/09/23 10:54:37;;;;;;;4.63;1.90;;;19.30;99.90;;;;;;5035559;28;20435;-74
2023/09/23 10:57:04;;;;;;;3.10;1.63;;;19.80;99.90;;;;;;5035111;28;20491;-73
2023/09/23 10:59:33;;;;;;;1.80;1.33;;;20.20;99.90;;;;;;5035357;28;20815;-72
2023/09/23 11:01:59;;;;;;;7.70;2.10;;;20.00;99.90;;;;;;5031600;28;20531;-73
2023/09/23 11:04:26;;;;;;;1.50;1.40;;;20.10;99.90;;;;;;5034360;28;20450;-73
2023/09/23 11:06:53;;;;;;;2.97;1.47;;;20.20;99.90;;;;;;5035987;28;20449;-75
2023/09/23 11:09:20;;;;;;;51.60;35.93;;;20.20;99.90;;;;;;5027975;28;20543;-74
2023/09/23 11:11:47;;;;;;;9.43;7.80;;;20.20;99.90;;;;;;5034492;28;20481;-73
2023/09/23 11:14:14;;;;;;;83.73;56.40;;;20.30;99.90;;;;;;5032637;28;20506;-73
2023/09/23 11:16:44;;;;;;;3.10;1.80;;;20.00;99.90;;;;;;5027207;28;21003;-72
2023/09/23 11:19:11;;;;;;;7.30;1.50;;;19.60;99.90;;;;;;5032010;28;20461;-73
2023/09/23 11:21:44;;;;;;;2.53;1.60;;;19.30;99.90;;;;;;5032329;28;20484;-72
2023/09/23 11:24:12;;;;;;;5.60;1.90;;;19.00;99.90;;;;;;5032038;28;20456;-72
2023/09/23 11:26:40;;;;;;;3.83;1.50;;;19.10;99.90;;;;;;5033032;28;20446;-73
2023/09/23 11:29:07;;;;;;;3.07;1.70;;;19.10;99.90;;;;;;5024948;28;20461;-72
2023/09/23 11:31:34;;;;;;;9.57;2.60;;;18.70;99.90;;;;;;5032022;28;20457;-73
2023/09/23 11:34:02;;;;;;;2.80;1.60;;;18.50;99.90;;;;;;5034766;28;20452;-72
2023/09/23 11:36:29;;;;;;;2.90;2.00;;;18.20;99.90;;;;;;5033501;28;20457;-72
2023/09/23 11:38:55;;;;;;;4.87;1.70;;;18.10;99.90;;;;;;5032284;28;20461;-73
2023/09/23 11:41:22;;;;;;;3.13;1.73;;;18.10;99.90;;;;;;5030984;28;20425;-73
2023/09/23 11:43:50;;;;;;;5.30;1.90;;;18.50;99.90;;;;;;5034380;28;20465;-73
2023/09/23 11:46:19;;;;;;;4.53;1.90;;;18.90;99.90;;;;;;5033194;28;20453;-73
2023/09/23 11:48:48;;;;;;;6.70;1.87;;;19.40;99.90;;;;;;5034046;28;20915;-73
2023/09/23 11:51:17;;;;;;;3.20;1.80;;;19.70;99.90;;;;;;5031768;28;20460;-73
2023/09/23 11:53:44;;;;;;;4.27;2.00;;;19.30;99.90;;;;;;5034329;28;20481;-73
2023/09/23 11:56:12;;;;;;;3.30;1.90;;;18.90;99.90;;;;;;5033143;28;20883;-73
2023/09/23 11:58:39;;;;;;;5.80;1.80;;;18.90;99.90;;;;;;5031497;28;20465;-73
2023/09/23 12:01:06;;;;;;;4.87;1.77;;;19.00;99.90;;;;;;5033687;28;20420;-73
2023/09/23 12:03:33;;;;;;;2.30;1.70;;;18.80;99.90;;;;;;5036193;28;20447;-73
2023/09/23 12:05:59;;;;;;;2.87;1.60;;;18.70;99.90;;;;;;5026137;28;20452;-72
2023/09/23 12:08:27;;;;;;;2.20;1.90;;;18.60;99.90;;;;;;5030896;28;20428;-73
2023/09/23 12:10:55;;;;;;;2.40;1.60;;;18.20;99.90;;;;;;5032490;28;20500;-73
2023/09/23 12:13:24;;;;;;;3.83;1.90;;;18.30;99.90;;;;;;5030631;28;20557;-73
2023/09/23 12:15:51;;;;;;;3.27;1.87;;;18.40;99.90;;;;;;5031756;28;20478;-72
2023/09/23 12:18:18;;;;;;;3.03;1.70;;;18.40;99.90;;;;;;5029502;28;20432;-74
2023/09/23 12:20:45;;;;;;;2.20;2.00;;;18.70;99.90;;;;;;5032296;28;20447;-73
2023/09/23 12:23:12;;;;;;;3.47;2.00;;;19.10;99.90;;;;;;5030562;28;20481;-72
2023/09/23 12:25:42;;;;;;;5.15;1.80;;;19.80;99.90;;;;;;5029957;28;20941;-77
2023/09/23 12:28:08;;;;;;;4.53;1.60;;;20.50;99.90;;;;;;5030603;28;20203;-75
2023/09/23 12:30:35;;;;;;;3.20;2.07;;;21.10;99.90;;;;;;5030670;28;21072;-75
2023/09/23 12:33:02;;;;;;;3.03;1.50;;;21.40;99.90;;;;;;5030651;28;20990;-75
2023/09/23 12:35:29;;;;;;;4.30;1.83;;;21.30;99.90;;;;;;5030499;28;20484;-75
2023/09/23 12:37:56;;;;;;;4.33;1.90;;;21.50;99.90;;;;;;5031043;28;20962;-75
2023/09/23 12:40:22;;;;;;;4.03;2.13;;;21.50;99.90;;;;;;5031160;28;20488;-73
2023/09/23 12:42:51;;;;;;;3.00;2.53;;;21.40;99.90;;;;;;5030033;28;20556;-75
2023/09/23 12:45:18;;;;;;;3.40;1.83;;;21.30;99.90;;;;;;5030543;28;20454;-75
2023/09/23 12:47:44;;;;;;;18.13;12.20;;;21.10;99.90;;;;;;5031032;28;20445;-72
2023/09/23 12:50:12;;;;;;;9.40;3.63;;;21.10;99.90;;;;;;5036783;28;20218;-71